Latest Coastal Weather Observations for Robe Airport

IDS60701

Issued at 8:25 pm CST Tuesday 29 July 2014 (issued every 10 minutes, with the page automatically refreshed every 10 minutes)

About coastal observations | Map of coastal stations | Coastal observations for SA | Marine services | Other Formats
Station Details ID: 026105 Name: ROBE AIRFIELD Lat: -37.18 Lon: 139.81 Height: 3.0 m
Data from the previous 72 hours. | See also: Recent months for locations in South Australia
Date/Time
CST
Temp

°C
Wind Pressure Rain
since 9am
mm
Weather Cloud Vis
km
Sea
Height
m
Swell
Dir
 
Speed
knots
Gust
knots
hPa Trend Height
m
Period
s
Dir
29/08:00pm 14.5 WNW 13 19 1012.1 - 3.2 - - - - - - -
29/07:30pm 13.8 WNW 12 19 1012.0 - 3.2 - - - - - - -
29/07:00pm 14.0 WNW 15 24 1011.6 - 3.2 - - - - - - -
29/06:30pm 14.4 WNW 14 21 1011.4 - 3.2 - - - - - - -
29/06:00pm 14.6 WNW 16 26 1011.3 - 3.0 Recent precip. - - - - - -
29/05:59pm 14.8 WNW 16 26 1011.4 - 3.0 - - - - - - -
29/05:30pm 14.8 WNW 15 21 1010.9 - 3.0 - - - - - - -
29/05:00pm 14.6 WNW 14 19 1010.8 - 2.8 - - - - - - -
29/04:30pm 15.0 NW 14 20 1010.1 - 2.4 - - - - - - -
29/04:06pm 15.4 WNW 15 26 1010.0 - 2.4 - - - - - - -
29/04:00pm 15.2 NW 13 21 1010.1 - 2.4 - - - - - - -
29/03:30pm 15.6 WNW 16 24 1010.0 - 2.4 - - - - - - -
29/03:00pm 15.5 WNW 16 22 1009.8 - 2.4 - - - - - - -
29/02:38pm 15.4 WNW 15 26 1009.7 - 2.4 - - - - - - -
29/02:30pm 15.6 WNW 13 19 1009.7 - 2.4 - - - - - - -
29/02:14pm 15.6 WNW 17 29 1009.4 - 2.4 - - - - - - -
29/02:00pm 15.0 WNW 15 22 1009.3 - 2.4 - - - - - - -
29/01:30pm 15.5 WNW 16 25 1009.2 - 2.4 - - - - - - -
29/01:06pm 14.2 WNW 19 34 1009.4 - 2.4 - - - - - - -
29/01:00pm 14.9 WNW 19 28 1009.4 - 2.0 - - - - - - -
29/12:41pm 15.4 WNW 16 28 1009.4 - 2.0 - - - - - - -
29/12:30pm 16.0 WNW 17 25 1009.4 - 2.0 - - - - - - -
29/12:00pm 15.6 WNW 16 24 1009.7 - 1.8 Recent precip. - - - - - -
29/11:30am 15.2 WNW 14 21 1009.9 - 1.8 - - - - - - -
29/11:10am 14.4 WNW 15 27 1009.8 - 1.8 - - - - - - -
29/11:00am 14.2 WNW 13 20 1009.9 - 1.0 - - - - - - -
29/10:30am 15.2 WNW 18 28 1009.9 - 0.2 - - - - - - -
29/10:00am 15.0 NW 18 24 1009.8 - 0.2 - - - - - - -
29/09:30am 14.3 NW 16 24 1009.6 - 0.2 - - - - - - -
29/09:00am 14.4 NW 15 21 1009.5 - 6.0 Recent precip. - - - - - -
29/08:30am 13.9 NW 16 22 1009.1 - 5.6 - - - - - - -
29/08:00am 14.3 NW 16 24 1009.1 - 5.4 - - - - - - -
29/07:30am 14.3 NW 19 26 1008.9 - 5.4 - - - - - - -
29/07:00am 14.2 NW 17 28 1009.2 - 5.4 - - - - - - -
29/06:52am 14.3 NW 16 28 1009.1 - 5.4 - - - - - - -
29/06:30am 14.5 NW 15 22 1009.0 - 4.4 - - - - - - -
29/06:00am 14.6 NW 17 28 1008.7 - 4.4 - - - - - - -
29/05:41am 13.9 NW 15 25 1008.7 - 4.4 - - - - - - -
29/05:30am 14.1 NW 16 23 1008.5 - 4.4 - - - - - - -
29/05:00am 14.3 NW 16 24 1008.7 - 4.4 - - - - - - -
29/04:30am 13.8 NW 18 29 1008.6 - 4.4 - - - - - - -
29/04:28am 13.8 NW 17 28 1008.5 - 4.4 - - - - - - -
29/04:00am 13.9 NW 17 27 1008.5 - 4.2 - - - - - - -
29/03:30am 13.9 NNW 21 32 1008.5 - 4.2 - - - - - - -
29/03:10am 13.8 NW 19 30 1008.6 - 4.2 - - - - - - -
29/03:00am 13.5 NW 18 27 1008.7 - 4.2 Rain - - - - - -
29/02:30am 13.8 NW 20 25 1008.9 - 3.8 - - - - - - -
29/02:00am 13.7 NNW 17 26 1009.0 - 3.8 - - - - - - -
29/01:30am 13.8 NNW 18 26 1009.3 - 3.8 - - - - - - -
29/01:00am 13.6 NW 17 24 1009.6 - 3.8 - - - - - - -
29/12:30am 13.9 NNW 18 25 1009.7 - 3.8 - - - - - - -
29/12:00am 13.8 NNW 17 22 1010.2 - 3.8 Rain - - - - - -
 
Date/Time
CST
Temp

°C
Wind Pressure Rain
since 9am
mm
Weather Cloud Vis
km
Sea
Height
m
Swell
Dir
 
Speed
knots
Gust
knots
hPa Trend Height
m
Period
s
Dir
28/11:30pm 13.4 NNW 14 18 1010.4 - 3.6 - - - - - - -
28/11:00pm 13.4 NNW 15 21 1010.7 - 3.4 - - - - - - -
28/10:30pm 13.6 NNW 16 21 1011.3 - 3.4 - - - - - - -
28/10:00pm 13.2 NW 13 17 1011.7 - 3.4 - - - - - - -
28/09:30pm 12.9 NNW 11 15 1011.7 - 3.2 - - - - - - -
28/09:00pm 13.1 NNW 13 20 1011.5 - 1.6 Rain - - - - - -
28/08:30pm 13.6 NNW 16 22 1011.9 - 0.0 - - - - - - -
28/08:00pm 13.6 NNW 14 19 1011.8 - 0.0 - - - - - - -
28/07:30pm 13.1 NNW 13 20 1012.0 - 0.0 - - - - - - -
28/07:00pm 13.4 NNW 14 19 1011.9 - 0.0 - - - - - - -
28/06:30pm 13.2 NNW 14 19 1011.8 - 0.0 - - - - - - -
28/06:00pm 13.3 NNW 16 22 1011.7 - 0.0 - - - - - - -
28/05:30pm 13.1 NNW 14 20 1011.7 - 0.0 - - - - - - -
28/05:00pm 13.2 NNW 15 20 1011.9 - 0.0 - - - - - - -
28/04:30pm 13.7 NNW 16 23 1011.9 - 0.0 - - - - - - -
28/04:00pm 14.2 NNW 15 20 1011.8 - 0.0 - - - - - - -
28/03:30pm 14.7 NNW 15 21 1011.7 - 0.0 - - - - - - -
28/03:00pm 15.0 NNW 16 21 1011.6 - 0.0 - - - - - - -
28/02:30pm 15.3 NNW 15 19 1011.9 - 0.0 - - - - - - -
28/02:00pm 16.1 NNW 15 19 1012.4 - 0.0 - - - - - - -
28/01:30pm 15.9 NW 15 20 1012.9 - 0.0 - - - - - - -
28/01:00pm 16.3 NNW 14 19 1013.3 - 0.0 - - - - - - -
28/12:30pm 16.1 NW 15 20 1013.7 - 0.0 - - - - - - -
28/12:00pm 15.9 NNW 14 20 1014.0 - 0.0 - - - - - - -
28/11:30am 15.8 NNW 14 20 1014.2 - 0.0 - - - - - - -
28/11:00am 16.1 NNW 13 17 1014.6 - 0.0 - - - - - - -
28/10:30am 15.9 NNW 12 17 1014.8 - 0.0 - - - - - - -
28/10:00am 15.1 NW 12 18 1014.9 - 0.0 - - - - - - -
28/09:30am 14.6 NNW 10 14 1014.9 - 0.0 - - - - - - -
28/09:00am 13.8 NNW 10 13 1014.9 - 0.0 - - - - - - -
28/08:30am 13.3 NNW 8 11 1014.7 - 0.0 - - - - - - -
28/08:00am 12.2 NNW 7 8 1014.6 - 0.0 - - - - - - -
28/07:30am 11.4 NNW 5 7 1014.5 - 0.0 - - - - - - -
28/07:00am 11.2 NNW 6 10 1014.5 - 0.0 - - - - - - -
28/06:30am 11.7 NNW 6 8 1014.4 - 0.0 - - - - - - -
28/06:00am 12.1 NW 6 9 1014.5 - 0.0 - - - - - - -
28/05:30am 12.3 NNW 9 12 1014.5 - 0.0 - - - - - - -
28/05:00am 12.1 NNW 9 12 1014.4 - 0.0 - - - - - - -
28/04:30am 12.6 NNW 11 14 1014.5 - 0.0 - - - - - - -
28/04:00am 12.8 NNW 10 14 1014.7 - 0.0 - - - - - - -
28/03:30am 12.5 NNW 10 14 1014.7 - 0.0 - - - - - - -
28/03:00am 12.4 NNW 10 14 1014.8 - 0.0 - - - - - - -
28/02:30am 12.8 N 11 14 1014.9 - 0.0 - - - - - - -
28/02:00am 12.2 N 11 16 1015.1 - 0.0 - - - - - - -
28/01:30am 11.9 N 9 12 1015.3 - 0.0 - - - - - - -
28/01:00am 12.2 N 10 14 1015.2 - 0.0 - - - - - - -
28/12:30am 11.8 N 8 11 1015.7 - 0.0 - - - - - - -
28/12:00am 12.1 NNW 8 11 1016.0 - 0.0 - - - - - - -
 
Date/Time
CST
Temp

°C
Wind Pressure Rain
since 9am
mm
Weather Cloud Vis
km
Sea
Height
m
Swell
Dir
 
Speed
knots
Gust
knots
hPa Trend Height
m
Period
s
Dir
27/11:30pm 11.7 NNW 7 10 1016.4 - 0.0 - - - - - - -
27/11:00pm 12.0 NNW 10 14 1016.3 - 0.0 - - - - - - -
27/10:30pm 12.1 N 12 15 1016.4 - 0.0 - - - - - - -
27/10:00pm 12.2 NNW 12 16 1016.7 - 0.0 - - - - - - -
27/09:30pm 12.3 NNW 12 17 1017.0 - 0.0 - - - - - - -
27/09:00pm 12.6 NNW 10 15 1017.1 - 0.0 - - - - - - -
27/08:30pm 12.4 N 12 18 1016.9 - 0.0 - - - - - - -
27/08:00pm 12.6 NNW 11 17 1017.0 - 0.0 - - - - - - -
27/07:30pm 13.1 N 14 18 1016.9 - 0.0 - - - - - - -
27/07:00pm 13.0 N 13 17 1017.0 - 0.0 - - - - - - -
27/06:30pm 13.0 N 13 17 1017.1 - 0.0 - - - - - - -
27/06:00pm 13.1 N 14 18 1017.1 - 0.0 - - - - - - -
27/05:30pm 13.1 N 14 19 1017.1 - 0.0 - - - - - - -
27/05:00pm 13.6 N 16 21 1017.0 - 0.0 - - - - - - -
27/04:30pm 14.2 N 16 21 1017.0 - 0.0 - - - - - - -
27/04:00pm 14.6 NNW 16 21 1017.1 - 0.0 - - - - - - -
27/03:30pm 15.0 NNW 16 23 1017.2 - 0.0 - - - - - - -
27/03:00pm 15.0 NNW 16 21 1017.3 - 0.0 - - - - - - -
27/02:30pm 15.3 NNW 16 21 1017.5 - 0.0 - - - - - - -
27/02:00pm 15.4 NNW 17 22 1017.8 - 0.0 - - - - - - -
27/01:30pm 15.0 NNW 17 23 1017.9 - 0.0 - - - - - - -
27/01:00pm 14.6 NNW 15 20 1018.3 - 0.0 - - - - - - -
27/12:30pm 14.2 N 19 26 1018.5 - 0.0 - - - - - - -
27/12:00pm 14.0 N 18 27 1019.4 - 0.0 - - - - - - -
27/11:55am 14.3 N 16 27 1019.5 - 0.0 - - - - - - -
27/11:30am 13.4 N 17 22 1020.4 - 0.0 - - - - - - -
27/11:00am 13.2 N 16 22 1020.6 - 0.0 - - - - - - -
27/10:30am 12.8 N 15 20 1021.0 - 0.0 - - - - - - -
27/10:00am 11.9 N 15 20 1021.2 - 0.0 - - - - - - -
27/09:30am 11.3 N 14 21 1021.4 - 0.0 - - - - - - -
27/09:00am 10.2 N 13 17 1021.5 - 0.2 - - - - - - -
27/08:30am 9.6 N 13 18 1021.5 - 0.2 - - - - - - -
27/08:00am 8.7 N 13 18 1021.8 - 0.2 - - - - - - -
27/07:30am 8.8 N 11 15 1021.9 - 0.2 - - - - - - -
27/07:00am 8.6 N 10 13 1022.0 - 0.2 - - - - - - -
27/06:30am 8.8 N 11 13 1022.3 - 0.2 - - - - - - -
27/06:00am 8.8 N 8 10 1022.5 - 0.0 - - - - - - -
27/05:30am 8.9 N 8 11 1022.7 - 0.0 - - - - - - -
27/05:00am 8.9 N 7 10 1022.9 - 0.0 - - - - - - -
27/04:30am 8.1 N 7 9 1023.0 - 0.0 - - - - - - -
27/04:00am 8.1 N 6 7 1023.0 - 0.0 - - - - - - -
27/03:30am 6.7 N 4 6 1023.2 - 0.0 - - - - - - -
27/03:00am 8.4 N 7 9 1023.4 - 0.0 - - - - - - -
27/02:30am 8.5 N 6 8 1023.7 - 0.0 - - - - - - -
27/02:00am 7.5 N 6 7 1023.8 - 0.0 - - - - - - -
27/01:30am 8.6 N 7 8 1023.8 - 0.0 - - - - - - -
27/01:00am 9.0 N 7 9 1023.8 - 0.0 - - - - - - -
27/12:30am 9.0 N 7 9 1024.0 - 0.0 - - - - - - -
27/12:00am 9.2 N 7 8 1024.3 - 0.0 - - - - - - -
 
Date/Time
CST
Temp

°C
Wind Pressure Rain
since 9am
mm
Weather Cloud Vis
km
Sea
Height
m
Swell
Dir
 
Speed
knots
Gust
knots
hPa Trend Height
m
Period
s
Dir
26/11:30pm 9.2 N 7 9 1024.6 - 0.0 - - - - - - -
26/11:00pm 9.1 N 7 9 1024.7 - 0.0 - - - - - - -
26/10:30pm 8.9 N 6 7 1024.9 - 0.0 - - - - - - -
26/10:00pm 9.0 N 6 7 1025.1 - 0.0 - - - - - - -
26/09:30pm 9.5 N 7 8 1025.1 - 0.0 - - - - - - -
26/09:00pm 9.4 N 7 8 1025.3 - 0.0 - - - - - - -
26/08:30pm 9.0 N 6 7 1025.5 - 0.0 - - - - - - -

Other Formats:

Comma delimited format used in spreadsheet applications
http://www.bom.gov.au/fwo/IDS60701/IDS60701.95816.axf

JavaScript Object Notation format (JSON) in row-major order
http://www.bom.gov.au/fwo/IDS60701/IDS60701.95816.json